Time;durP1;ratioP1;P1;durP2;ratioP2;P2;SDS_P1;SDS_P2;PMS_P1;PMS_P2;Temp;Humidity;BMP_temperature;BMP_pressure;BME280_temperature;BME280_humidity;BME280_pressure;Samples;Min_cycle;Max_cycle;Signal;HPM_P1;HPM_P2
2024/02/12 00:00:44;;;;;;;5.95;2.63;;;;;;;;;;2056130;28;20043;-53
2024/02/12 00:01:45;;;;;;;5.70;2.28;;;;;;;;;;2057054;28;20097;-54
2024/02/12 00:02:47;;;;;;;5.45;2.60;;;;;;;;;;2057869;28;20397;-55
2024/02/12 00:03:48;;;;;;;6.75;3.05;;;;;;;;;;2057927;28;20023;-53
2024/02/12 00:04:49;;;;;;;7.43;2.78;;;;;;;;;;2058172;28;20082;-51
2024/02/12 00:05:51;;;;;;;5.25;2.92;;;;;;;;;;2057883;28;20500;-51
2024/02/12 00:06:56;;;;;;;6.25;2.83;;;;;;;;;;2050242;28;20030;-51
2024/02/12 00:07:57;;;;;;;6.97;3.42;;;;;;;;;;2056423;28;20019;-51
2024/02/12 00:08:58;;;;;;;5.47;2.88;;;;;;;;;;2058066;28;20023;-53
2024/02/12 00:10:05;;;;;;;5.45;2.40;;;;;;;;;;2049792;28;20095;-54
2024/02/12 00:11:08;;;;;;;5.13;2.47;;;;;;;;;;2057880;28;20078;-54
2024/02/12 00:12:11;;;;;;;4.95;2.75;;;;;;;;;;2058134;28;20030;-54
2024/02/12 00:13:12;;;;;;;7.28;2.80;;;;;;;;;;2057252;28;20026;-53
2024/02/12 00:14:14;;;;;;;5.50;2.78;;;;;;;;;;2053437;28;20121;-56
2024/02/12 00:15:17;;;;;;;5.18;3.03;;;;;;;;;;2059537;28;20025;-53
2024/02/12 00:16:19;;;;;;;4.85;2.72;;;;;;;;;;2058918;28;20019;-54
2024/02/12 00:17:20;;;;;;;5.05;2.78;;;;;;;;;;2058594;28;20015;-53
2024/02/12 00:18:23;;;;;;;6.80;2.92;;;;;;;;;;2058945;28;20030;-54
2024/02/12 00:19:24;;;;;;;4.60;2.63;;;;;;;;;;2053342;28;20019;-53
2024/02/12 00:20:30;;;;;;;3.65;2.50;;;;;;;;;;2052197;28;20031;-57
2024/02/12 00:21:31;;;;;;;4.68;2.40;;;;;;;;;;2057831;28;20580;-48
2024/02/12 00:22:32;;;;;;;7.63;2.70;;;;;;;;;;2063435;28;20390;-52
2024/02/12 00:23:34;;;;;;;4.57;2.30;;;;;;;;;;2058364;28;20026;-53
2024/02/12 00:24:35;;;;;;;3.92;2.45;;;;;;;;;;2058005;28;20410;-52
2024/02/12 00:25:37;;;;;;;4.63;2.65;;;;;;;;;;2057755;28;20015;-53
2024/02/12 00:26:41;;;;;;;4.82;2.72;;;;;;;;;;2057663;28;20023;-52
2024/02/12 00:27:43;;;;;;;4.03;2.60;;;;;;;;;;2057884;28;20054;-52
2024/02/12 00:28:48;;;;;;;6.70;2.50;;;;;;;;;;2056962;28;20031;-51
2024/02/12 00:29:51;;;;;;;7.15;2.83;;;;;;;;;;2057335;28;20508;-53
2024/02/12 00:30:52;;;;;;;6.22;2.42;;;;;;;;;;2057503;28;20121;-51
2024/02/12 00:31:58;;;;;;;6.68;2.42;;;;;;;;;;2057280;28;20484;-52
2024/02/12 00:33:00;;;;;;;4.30;2.25;;;;;;;;;;2057961;28;20054;-54
2024/02/12 00:34:01;;;;;;;4.82;2.60;;;;;;;;;;2057207;28;20011;-51
2024/02/12 00:35:04;;;;;;;4.93;2.67;;;;;;;;;;2057884;28;20576;-52
2024/02/12 00:36:06;;;;;;;3.13;2.30;;;;;;;;;;2057831;28;20119;-50
2024/02/12 00:37:08;;;;;;;4.78;2.65;;;;;;;;;;2057416;28;20015;-52
2024/02/12 00:38:11;;;;;;;5.22;2.80;;;;;;;;;;2057330;28;20095;-53
2024/02/12 00:39:13;;;;;;;5.65;2.35;;;;;;;;;;2057128;28;20018;-52
2024/02/12 00:40:15;;;;;;;5.25;2.67;;;;;;;;;;2057142;28;20077;-51
2024/02/12 00:41:20;;;;;;;5.65;2.88;;;;;;;;;;2053980;28;20042;-52
2024/02/12 00:42:23;;;;;;;5.63;2.67;;;;;;;;;;2057116;28;20027;-52
2024/02/12 00:43:26;;;;;;;5.45;2.65;;;;;;;;;;2056629;28;20026;-51
2024/02/12 00:44:29;;;;;;;4.70;2.30;;;;;;;;;;2057946;28;20493;-51
2024/02/12 00:45:31;;;;;;;5.35;2.58;;;;;;;;;;2057574;28;20139;-53
2024/02/12 00:46:32;;;;;;;4.13;2.67;;;;;;;;;;2056464;28;20109;-52
2024/02/12 00:47:34;;;;;;;4.13;2.55;;;;;;;;;;2057387;28;20141;-51
2024/02/12 00:48:36;;;;;;;5.70;2.47;;;;;;;;;;2056178;28;20046;-51
2024/02/12 00:49:40;;;;;;;4.90;2.80;;;;;;;;;;2057867;28;20047;-52
2024/02/12 00:50:41;;;;;;;6.47;3.08;;;;;;;;;;2057151;28;20031;-52
2024/02/12 00:51:43;;;;;;;5.35;2.97;;;;;;;;;;2057652;28;20039;-51
2024/02/12 00:52:44;;;;;;;5.75;3.42;;;;;;;;;;2057493;28;20030;-50
2024/02/12 00:53:47;;;;;;;6.75;3.45;;;;;;;;;;2052750;28;20025;-51
2024/02/12 00:54:49;;;;;;;4.75;2.63;;;;;;;;;;2053703;28;20023;-51
2024/02/12 00:55:50;;;;;;;4.32;3.05;;;;;;;;;;2057294;28;20023;-52
2024/02/12 00:56:53;;;;;;;3.97;2.80;;;;;;;;;;2053321;28;20043;-52
2024/02/12 00:57:54;;;;;;;5.97;2.90;;;;;;;;;;2052529;28;20499;-49
2024/02/12 00:58:55;;;;;;;4.97;3.00;;;;;;;;;;2056808;28;20564;-51
2024/02/12 00:59:57;;;;;;;5.25;2.75;;;;;;;;;;2048704;29;20505;-51
2024/02/12 01:00:58;;;;;;;4.63;3.08;;;;;;;;;;2058315;28;20030;-52
2024/02/12 01:01:59;;;;;;;5.85;2.55;;;;;;;;;;2072823;28;20033;-52
2024/02/12 01:03:01;;;;;;;6.47;2.90;;;;;;;;;;2056932;28;20026;-51
2024/02/12 01:04:02;;;;;;;3.70;2.65;;;;;;;;;;2055548;28;20102;-52
2024/02/12 01:05:03;;;;;;;6.00;2.42;;;;;;;;;;2056810;28;20019;-52
2024/02/12 01:06:05;;;;;;;5.93;3.13;;;;;;;;;;2056464;28;20489;-51
2024/02/12 01:07:06;;;;;;;5.22;2.70;;;;;;;;;;2056097;28;20034;-51
2024/02/12 01:08:07;;;;;;;5.75;2.83;;;;;;;;;;2056220;28;20394;-51
2024/02/12 01:09:12;;;;;;;3.80;2.80;;;;;;;;;;2056363;28;20042;-52
2024/02/12 01:10:13;;;;;;;5.38;3.13;;;;;;;;;;2056374;28;20041;-51
2024/02/12 01:11:14;;;;;;;4.25;2.50;;;;;;;;;;2064377;28;20105;-48
2024/02/12 01:12:15;;;;;;;5.80;3.17;;;;;;;;;;2055535;28;20117;-48
2024/02/12 01:13:17;;;;;;;5.65;3.10;;;;;;;;;;2056594;28;20033;-51
2024/02/12 01:14:19;;;;;;;4.45;2.90;;;;;;;;;;2057086;28;20018;-52
2024/02/12 01:15:20;;;;;;;5.78;3.40;;;;;;;;;;2052867;28;20454;-51
2024/02/12 01:16:22;;;;;;;6.07;3.33;;;;;;;;;;2056328;28;20031;-51
2024/02/12 01:17:24;;;;;;;7.00;3.08;;;;;;;;;;2056558;28;20023;-53
2024/02/12 01:18:25;;;;;;;5.25;3.30;;;;;;;;;;2056386;28;20034;-51
2024/02/12 01:19:26;;;;;;;4.78;3.25;;;;;;;;;;2057109;28;20026;-53
2024/02/12 01:20:27;;;;;;;4.25;2.92;;;;;;;;;;2057069;28;20019;-53
2024/02/12 01:21:33;;;;;;;4.80;2.63;;;;;;;;;;2057148;28;20011;-53
2024/02/12 01:22:34;;;;;;;6.10;3.05;;;;;;;;;;2056963;28;20042;-52
2024/02/12 01:23:36;;;;;;;5.30;2.75;;;;;;;;;;2056331;28;20169;-51
2024/02/12 01:24:37;;;;;;;5.93;2.88;;;;;;;;;;2056519;28;20019;-51
2024/02/12 01:25:42;;;;;;;4.03;2.47;;;;;;;;;;2056301;28;20462;-51
2024/02/12 01:26:44;;;;;;;3.55;2.03;;;;;;;;;;2048885;28;20023;-51
2024/02/12 01:27:45;;;;;;;3.50;1.98;;;;;;;;;;2048691;28;20074;-51
2024/02/12 01:28:47;;;;;;;2.92;1.80;;;;;;;;;;2056426;28;20029;-51
2024/02/12 01:29:48;;;;;;;2.70;1.85;;;;;;;;;;2056377;28;20510;-52
2024/02/12 01:30:50;;;;;;;3.50;1.70;;;;;;;;;;2056441;28;20102;-52
2024/02/12 01:31:51;;;;;;;2.53;1.52;;;;;;;;;;2056678;28;20011;-47
2024/02/12 01:32:53;;;;;;;2.83;1.70;;;;;;;;;;2056921;28;20034;-52
2024/02/12 01:33:55;;;;;;;2.15;1.30;;;;;;;;;;2057021;28;20049;-52
2024/02/12 01:34:58;;;;;;;2.92;1.40;;;;;;;;;;2056275;28;20027;-48
2024/02/12 01:36:00;;;;;;;3.47;2.60;;;;;;;;;;2056480;28;20019;-52
2024/02/12 01:37:01;;;;;;;4.95;2.30;;;;;;;;;;2052519;28;20191;-51
2024/02/12 01:38:08;;;;;;;4.05;2.63;;;;;;;;;;2040531;29;20501;-52
2024/02/12 01:39:09;;;;;;;3.42;2.28;;;;;;;;;;2049813;28;20027;-53
2024/02/12 01:40:11;;;;;;;3.67;2.15;;;;;;;;;;2064394;28;20022;-52
2024/02/12 01:41:15;;;;;;;2.50;1.67;;;;;;;;;;2057442;28;20007;-52
2024/02/12 01:42:17;;;;;;;2.08;1.40;;;;;;;;;;2056135;28;20266;-48
2024/02/12 01:43:31;;;;;;;3.20;1.80;;;;;;;;;;2055581;28;20031;-51
2024/02/12 01:44:32;;;;;;;3.80;2.03;;;;;;;;;;2049250;29;20023;-52
2024/02/12 01:45:34;;;;;;;2.90;1.40;;;;;;;;;;2056392;28;20442;-52
2024/02/12 01:46:35;;;;;;;4.00;2.08;;;;;;;;;;2051104;28;20113;-52
2024/02/12 01:47:37;;;;;;;3.92;1.77;;;;;;;;;;2048388;29;20090;-48
2024/02/12 01:48:38;;;;;;;3.10;1.38;;;;;;;;;;2056428;28;20022;-51
2024/02/12 01:49:39;;;;;;;2.28;1.60;;;;;;;;;;2056198;28;20486;-52
2024/02/12 01:50:40;;;;;;;3.90;1.60;;;;;;;;;;2060768;28;20121;-52
2024/02/12 01:51:44;;;;;;;4.85;1.45;;;;;;;;;;2056329;28;20486;-52
2024/02/12 01:52:48;;;;;;;3.47;1.60;;;;;;;;;;2056347;28;20062;-52
2024/02/12 01:53:50;;;;;;;4.50;2.38;;;;;;;;;;2056974;28;20019;-52
2024/02/12 01:54:52;;;;;;;5.40;2.55;;;;;;;;;;2056718;28;20041;-52
2024/02/12 01:55:57;;;;;;;5.60;2.95;;;;;;;;;;2064450;28;20026;-48
2024/02/12 01:56:59;;;;;;;5.32;3.10;;;;;;;;;;2055635;28;20537;-50
2024/02/12 01:58:01;;;;;;;5.63;4.05;;;;;;;;;;2055358;28;20042;-52
2024/02/12 01:59:03;;;;;;;6.63;4.18;;;;;;;;;;2056956;28;20485;-52
2024/02/12 02:00:05;;;;;;;5.18;3.95;;;;;;;;;;2056772;28;20023;-54
2024/02/12 02:01:07;;;;;;;6.57;3.90;;;;;;;;;;2054566;28;20455;-53
2024/02/12 02:02:09;;;;;;;5.35;4.00;;;;;;;;;;2049502;28;20031;-50
2024/02/12 02:03:11;;;;;;;6.80;4.00;;;;;;;;;;2056937;28;20059;-53
2024/02/12 02:04:13;;;;;;;4.40;3.13;;;;;;;;;;2056822;28;20014;-52
2024/02/12 02:05:15;;;;;;;5.72;3.45;;;;;;;;;;2056943;28;20031;-55
2024/02/12 02:06:17;;;;;;;5.20;3.22;;;;;;;;;;2056011;28;20025;-53
2024/02/12 02:07:21;;;;;;;3.50;2.67;;;;;;;;;;2047884;28;20450;-52
2024/02/12 02:08:34;;;;;;;5.38;3.28;;;;;;;;;;2055977;28;20575;-52
2024/02/12 02:09:35;;;;;;;5.45;3.17;;;;;;;;;;2055730;28;20383;-54
2024/02/12 02:10:36;;;;;;;4.63;3.03;;;;;;;;;;2056319;28;20027;-53
2024/02/12 02:11:37;;;;;;;4.43;3.17;;;;;;;;;;2056772;28;20033;-54
2024/02/12 02:12:39;;;;;;;6.43;3.30;;;;;;;;;;2056468;28;20039;-51
2024/02/12 02:13:44;;;;;;;4.00;2.90;;;;;;;;;;2056513;28;20335;-51
2024/02/12 02:14:45;;;;;;;5.40;3.10;;;;;;;;;;2055035;28;20394;-50
2024/02/12 02:15:48;;;;;;;4.88;2.90;;;;;;;;;;2055492;28;20019;-53
2024/02/12 02:16:49;;;;;;;5.50;3.00;;;;;;;;;;2049400;28;20502;-53
2024/02/12 02:17:51;;;;;;;4.95;2.78;;;;;;;;;;2056592;28;20023;-53
2024/02/12 02:18:52;;;;;;;5.75;3.00;;;;;;;;;;2056533;28;20025;-53
2024/02/12 02:19:54;;;;;;;3.72;2.20;;;;;;;;;;2055977;28;20448;-53
2024/02/12 02:20:56;;;;;;;3.65;1.90;;;;;;;;;;2056140;28;20052;-53
2024/02/12 02:21:58;;;;;;;2.75;1.63;;;;;;;;;;2056691;28;20027;-53
2024/02/12 02:22:59;;;;;;;3.72;2.30;;;;;;;;;;2056388;28;20572;-53
2024/02/12 02:24:02;;;;;;;4.32;2.80;;;;;;;;;;2049961;28;20035;-52
2024/02/12 02:25:04;;;;;;;5.28;2.63;;;;;;;;;;2048703;28;20410;-52
2024/02/12 02:26:05;;;;;;;5.57;3.10;;;;;;;;;;2048662;29;20015;-53
2024/02/12 02:27:07;;;;;;;4.90;2.70;;;;;;;;;;2054867;28;20027;-52
2024/02/12 02:28:08;;;;;;;5.10;2.88;;;;;;;;;;2056396;28;20452;-52
2024/02/12 02:29:09;;;;;;;5.07;3.25;;;;;;;;;;2056740;28;20441;-53
2024/02/12 02:30:13;;;;;;;6.07;3.75;;;;;;;;;;2056357;28;20034;-51
2024/02/12 02:31:15;;;;;;;6.22;3.15;;;;;;;;;;2056498;28;20055;-51
2024/02/12 02:32:16;;;;;;;5.55;3.67;;;;;;;;;;2052021;28;20387;-53
2024/02/12 02:33:17;;;;;;;6.38;4.00;;;;;;;;;;2048878;28;20027;-52
2024/02/12 02:34:19;;;;;;;8.10;4.13;;;;;;;;;;2056344;28;20057;-50
2024/02/12 02:35:20;;;;;;;6.30;3.80;;;;;;;;;;2055997;28;20021;-49
2024/02/12 02:36:21;;;;;;;6.05;3.63;;;;;;;;;;2056532;28;20077;-52
2024/02/12 02:37:24;;;;;;;8.43;4.03;;;;;;;;;;2056251;28;20358;-53
2024/02/12 02:38:25;;;;;;;6.90;4.05;;;;;;;;;;2055583;28;20556;-53
2024/02/12 02:39:27;;;;;;;6.60;3.90;;;;;;;;;;2055941;28;20023;-54
2024/02/12 02:40:28;;;;;;;5.30;4.00;;;;;;;;;;2055789;28;20015;-54
2024/02/12 02:41:31;;;;;;;7.13;3.92;;;;;;;;;;2055627;28;20030;-53
2024/02/12 02:42:33;;;;;;;5.90;3.92;;;;;;;;;;2049685;28;20394;-53
2024/02/12 02:43:35;;;;;;;6.80;3.92;;;;;;;;;;2053136;28;20030;-52
2024/02/12 02:44:38;;;;;;;5.15;3.60;;;;;;;;;;2056104;28;20101;-52
2024/02/12 02:45:39;;;;;;;5.93;3.90;;;;;;;;;;2048698;28;20097;-54
2024/02/12 02:46:41;;;;;;;7.65;4.53;;;;;;;;;;2052282;28;20254;-53
2024/02/12 02:47:43;;;;;;;6.13;4.00;;;;;;;;;;2055807;28;20046;-52
2024/02/12 02:48:44;;;;;;;5.25;4.07;;;;;;;;;;2056230;28;20018;-54
2024/02/12 02:49:48;;;;;;;5.60;3.92;;;;;;;;;;2056372;28;20470;-52
2024/02/12 02:50:50;;;;;;;4.75;3.72;;;;;;;;;;2055504;28;20029;-54
2024/02/12 02:51:51;;;;;;;6.22;3.88;;;;;;;;;;2055882;28;20117;-52
2024/02/12 02:52:53;;;;;;;6.55;4.30;;;;;;;;;;2056184;28;20015;-52
2024/02/12 02:53:54;;;;;;;6.20;4.15;;;;;;;;;;2056263;28;20117;-52
2024/02/12 02:54:56;;;;;;;6.82;4.03;;;;;;;;;;2056768;28;20169;-54
2024/02/12 02:55:57;;;;;;;6.40;4.57;;;;;;;;;;2056228;28;20106;-54
2024/02/12 02:56:58;;;;;;;9.15;4.63;;;;;;;;;;2056426;28;20446;-53
2024/02/12 02:58:02;;;;;;;7.90;4.50;;;;;;;;;;2055856;28;20081;-54
2024/02/12 02:59:03;;;;;;;6.82;4.50;;;;;;;;;;2055779;28;20197;-51
2024/02/12 03:00:04;;;;;;;7.35;4.65;;;;;;;;;;2055716;28;20027;-48
2024/02/12 03:01:06;;;;;;;7.00;4.75;;;;;;;;;;2055860;28;20053;-53
2024/02/12 03:02:12;;;;;;;7.38;4.95;;;;;;;;;;2053698;28;20037;-52
2024/02/12 03:03:13;;;;;;;6.88;4.97;;;;;;;;;;2061212;28;20019;-49
2024/02/12 03:04:14;;;;;;;8.00;4.70;;;;;;;;;;2062309;28;20034;-52
2024/02/12 03:05:15;;;;;;;7.32;4.75;;;;;;;;;;2062314;28;20079;-52
2024/02/12 03:06:17;;;;;;;8.85;5.20;;;;;;;;;;2062707;28;20391;-50
2024/02/12 03:07:18;;;;;;;8.18;4.30;;;;;;;;;;2069039;28;20014;-48
2024/02/12 03:08:19;;;;;;;7.60;4.50;;;;;;;;;;2064710;28;20459;-50
2024/02/12 03:09:21;;;;;;;8.15;4.88;;;;;;;;;;2056622;28;20439;-49
2024/02/12 03:10:22;;;;;;;8.80;5.25;;;;;;;;;;2055506;28;20117;-48
2024/02/12 03:11:24;;;;;;;7.80;5.10;;;;;;;;;;2048031;28;20035;-48
2024/02/12 03:12:26;;;;;;;6.68;4.32;;;;;;;;;;2055683;28;20043;-49
2024/02/12 03:13:28;;;;;;;5.50;3.95;;;;;;;;;;2056084;28;20078;-50
2024/02/12 03:14:29;;;;;;;6.60;3.85;;;;;;;;;;2055799;28;20026;-49
2024/02/12 03:15:31;;;;;;;6.63;3.88;;;;;;;;;;2055446;28;20023;-49
2024/02/12 03:16:32;;;;;;;6.05;3.33;;;;;;;;;;2050895;28;20073;-49
2024/02/12 03:17:33;;;;;;;4.85;3.22;;;;;;;;;;2055746;28;20073;-48
2024/02/12 03:18:35;;;;;;;3.75;2.25;;;;;;;;;;2056138;28;20479;-48
2024/02/12 03:19:36;;;;;;;4.45;3.33;;;;;;;;;;2055625;28;20477;-48
2024/02/12 03:20:37;;;;;;;5.10;3.17;;;;;;;;;;2058024;28;20031;-48
2024/02/12 03:21:39;;;;;;;4.82;3.00;;;;;;;;;;2057303;28;20030;-52
2024/02/12 03:22:40;;;;;;;4.93;2.80;;;;;;;;;;2057911;28;20425;-53
2024/02/12 03:23:41;;;;;;;5.32;3.17;;;;;;;;;;2057401;28;20030;-52
2024/02/12 03:24:43;;;;;;;5.05;3.30;;;;;;;;;;2057126;28;20111;-49
2024/02/12 03:25:44;;;;;;;6.63;2.95;;;;;;;;;;2056874;28;20061;-50
2024/02/12 03:26:45;;;;;;;6.05;3.08;;;;;;;;;;2057618;28;20104;-49
2024/02/12 03:27:47;;;;;;;4.13;2.85;;;;;;;;;;2058203;28;20025;-49
2024/02/12 03:28:49;;;;;;;3.97;2.58;;;;;;;;;;2057499;28;20107;-49
2024/02/12 03:29:51;;;;;;;3.20;2.17;;;;;;;;;;2058191;28;20493;-49
2024/02/12 03:30:52;;;;;;;2.25;1.58;;;;;;;;;;2057229;28;20113;-48
2024/02/12 03:31:54;;;;;;;1.92;1.52;;;;;;;;;;2057441;28;20874;-48
2024/02/12 03:32:55;;;;;;;2.42;1.30;;;;;;;;;;2057797;28;20046;-49
2024/02/12 03:33:56;;;;;;;2.58;1.40;;;;;;;;;;2058250;28;20027;-48
2024/02/12 03:34:58;;;;;;;2.33;1.55;;;;;;;;;;2057430;28;20118;-48
2024/02/12 03:35:59;;;;;;;3.45;1.27;;;;;;;;;;2057020;28;20018;-48
2024/02/12 03:37:00;;;;;;;2.88;1.55;;;;;;;;;;2057066;28;20026;-48
2024/02/12 03:38:01;;;;;;;2.50;1.33;;;;;;;;;;2057990;28;20370;-48
2024/02/12 03:39:06;;;;;;;1.73;1.27;;;;;;;;;;2058068;28;20026;-48
2024/02/12 03:40:10;;;;;;;2.40;1.52;;;;;;;;;;2057767;28;20022;-47
2024/02/12 03:41:24;;;;;;;3.08;1.35;;;;;;;;;;2055753;28;20454;-47
2024/02/12 03:42:26;;;;;;;2.38;1.55;;;;;;;;;;2058073;28;20038;-48
2024/02/12 03:43:28;;;;;;;2.45;1.45;;;;;;;;;;2050807;28;20058;-48
2024/02/12 03:44:29;;;;;;;2.90;1.58;;;;;;;;;;2055714;28;20022;-48
2024/02/12 03:45:32;;;;;;;3.08;1.58;;;;;;;;;;2058125;28;20110;-47
2024/02/12 03:46:38;;;;;;;2.40;1.55;;;;;;;;;;2057299;28;20605;-47
2024/02/12 03:47:40;;;;;;;2.13;1.45;;;;;;;;;;2056586;28;20074;-47
2024/02/12 04:00:50;;;;;;;2.17;1.70;;;;;;;;;;2057858;28;20027;-48
2024/02/12 04:01:54;;;;;;;2.42;1.50;;;;;;;;;;2062098;28;20025;-48
2024/02/12 04:02:58;;;;;;;3.28;1.95;;;;;;;;;;2057921;28;20034;-47
2024/02/12 04:03:59;;;;;;;3.92;2.17;;;;;;;;;;2057734;28;20015;-48
2024/02/12 04:05:02;;;;;;;3.92;2.05;;;;;;;;;;2057405;28;20027;-48
2024/02/12 04:06:06;;;;;;;3.47;2.00;;;;;;;;;;2065178;28;20033;-50
2024/02/12 04:07:07;;;;;;;5.35;2.40;;;;;;;;;;2067727;28;20041;-49
2024/02/12 04:08:09;;;;;;;3.25;2.25;;;;;;;;;;2049373;28;20369;-48
2024/02/12 04:09:11;;;;;;;4.53;2.10;;;;;;;;;;2056934;28;20026;-48
2024/02/12 04:10:13;;;;;;;4.00;2.25;;;;;;;;;;2057470;28;20023;-47
2024/02/12 04:11:14;;;;;;;3.53;2.28;;;;;;;;;;2049576;28;20027;-48
2024/02/12 04:12:17;;;;;;;3.60;2.35;;;;;;;;;;2047153;28;20015;-48
2024/02/12 04:13:19;;;;;;;3.15;2.08;;;;;;;;;;2056829;28;20022;-49
2024/02/12 04:14:20;;;;;;;4.82;2.70;;;;;;;;;;2057837;28;20150;-52
2024/02/12 04:15:21;;;;;;;3.35;2.38;;;;;;;;;;2057347;28;20019;-48
2024/02/12 04:16:23;;;;;;;3.50;2.20;;;;;;;;;;2065699;28;20026;-47
2024/02/12 04:17:25;;;;;;;4.57;2.60;;;;;;;;;;2070567;28;20018;-54
2024/02/12 04:18:26;;;;;;;2.92;1.80;;;;;;;;;;2058547;28;20014;-50
2024/02/12 04:19:27;;;;;;;2.80;1.73;;;;;;;;;;2058656;28;20030;-51
2024/02/12 04:20:28;;;;;;;3.83;1.85;;;;;;;;;;2059564;28;20707;-49
2024/02/12 04:21:33;;;;;;;3.35;1.95;;;;;;;;;;2060412;28;20386;-49
2024/02/12 04:22:34;;;;;;;3.03;1.83;;;;;;;;;;2060041;28;20030;-48
2024/02/12 04:23:38;;;;;;;4.05;1.83;;;;;;;;;;2051382;28;20538;-47
2024/02/12 04:24:40;;;;;;;3.00;1.95;;;;;;;;;;2059628;28;20027;-47
2024/02/12 04:25:41;;;;;;;3.03;1.73;;;;;;;;;;2060525;28;20105;-48
2024/02/12 04:26:44;;;;;;;3.95;2.13;;;;;;;;;;2055162;28;20117;-48
2024/02/12 04:27:46;;;;;;;2.95;1.75;;;;;;;;;;2052712;28;20031;-50
2024/02/12 04:28:48;;;;;;;2.55;1.55;;;;;;;;;;2060223;28;20018;-48
2024/02/12 04:29:51;;;;;;;2.92;1.80;;;;;;;;;;2067925;28;20014;-51
2024/02/12 04:30:52;;;;;;;3.35;1.73;;;;;;;;;;2060174;28;20038;-53
2024/02/12 04:31:53;;;;;;;2.85;1.67;;;;;;;;;;2051143;28;20402;-51
2024/02/12 04:32:55;;;;;;;2.67;1.85;;;;;;;;;;2054234;28;20011;-53
2024/02/12 04:33:57;;;;;;;2.17;1.63;;;;;;;;;;2059013;28;20087;-53
2024/02/12 04:34:59;;;;;;;2.13;1.55;;;;;;;;;;2057023;28;20019;-51
2024/02/12 04:36:03;;;;;;;2.70;1.63;;;;;;;;;;2058265;28;20030;-48
2024/02/12 04:37:06;;;;;;;1.98;1.45;;;;;;;;;;2057524;28;20029;-51
2024/02/12 04:38:07;;;;;;;2.20;1.63;;;;;;;;;;2050196;28;20109;-52
2024/02/12 04:39:16;;;;;;;2.80;1.35;;;;;;;;;;2053018;28;20505;-51
2024/02/12 04:40:17;;;;;;;3.45;1.85;;;;;;;;;;2057783;28;20121;-51
2024/02/12 04:41:19;;;;;;;3.10;1.65;;;;;;;;;;2052816;28;20413;-49
2024/02/12 04:42:21;;;;;;;3.67;1.70;;;;;;;;;;2056460;28;20110;-48
2024/02/12 04:43:23;;;;;;;3.30;1.92;;;;;;;;;;2057612;28;20003;-48
2024/02/12 04:44:24;;;;;;;2.83;1.70;;;;;;;;;;2058754;28;20031;-49
2024/02/12 04:45:25;;;;;;;2.65;1.88;;;;;;;;;;2058163;28;20097;-50
2024/02/12 04:46:27;;;;;;;2.60;1.60;;;;;;;;;;2059248;28;20022;-48
2024/02/12 04:47:28;;;;;;;2.67;1.38;;;;;;;;;;2059607;28;20007;-48
2024/02/12 04:48:31;;;;;;;2.80;1.83;;;;;;;;;;2060766;28;20026;-48
2024/02/12 04:49:32;;;;;;;2.28;1.58;;;;;;;;;;2057848;28;20018;-48
2024/02/12 04:50:35;;;;;;;3.58;2.30;;;;;;;;;;2064611;28;20052;-48
2024/02/12 04:51:40;;;;;;;2.50;1.38;;;;;;;;;;2056298;28;20041;-48
2024/02/12 04:52:41;;;;;;;2.50;1.60;;;;;;;;;;2057298;28;20059;-48
2024/02/12 04:53:43;;;;;;;3.17;2.25;;;;;;;;;;2063028;28;20019;-48
2024/02/12 04:54:44;;;;;;;3.75;1.80;;;;;;;;;;2050172;28;20492;-48
2024/02/12 04:55:46;;;;;;;2.30;1.63;;;;;;;;;;2048816;28;20055;-48
2024/02/12 04:56:49;;;;;;;2.85;1.98;;;;;;;;;;2056633;28;20043;-48
2024/02/12 04:57:51;;;;;;;3.08;2.15;;;;;;;;;;2050160;28;20026;-48
2024/02/12 04:58:53;;;;;;;3.55;1.92;;;;;;;;;;2056648;28;20019;-48
2024/02/12 04:59:55;;;;;;;2.70;1.65;;;;;;;;;;2056715;28;20402;-49
2024/02/12 05:00:57;;;;;;;2.78;1.60;;;;;;;;;;2056723;28;20082;-48
2024/02/12 05:02:00;;;;;;;2.25;1.42;;;;;;;;;;2057349;28;20033;-47
2024/02/12 05:03:07;;;;;;;2.35;1.63;;;;;;;;;;2057050;28;20019;-49
2024/02/12 05:04:10;;;;;;;2.42;1.77;;;;;;;;;;2050921;28;20053;-48
2024/02/12 05:05:11;;;;;;;22.13;12.98;;;;;;;;;;2045831;28;20045;-48
2024/02/12 05:06:16;;;;;;;6.50;2.55;;;;;;;;;;2048548;28;20057;-49
2024/02/12 05:07:17;;;;;;;2.50;1.90;;;;;;;;;;2056622;28;20362;-48
2024/02/12 05:08:19;;;;;;;2.83;1.70;;;;;;;;;;2057197;28;20482;-49
2024/02/12 05:09:20;;;;;;;2.60;1.75;;;;;;;;;;2057395;28;20019;-49
2024/02/12 05:10:22;;;;;;;3.78;2.20;;;;;;;;;;2056808;28;20445;-49
2024/02/12 05:11:25;;;;;;;2.40;1.70;;;;;;;;;;2056438;28;20018;-49
2024/02/12 05:12:28;;;;;;;2.42;1.55;;;;;;;;;;2056509;28;20031;-49
2024/02/12 05:13:30;;;;;;;3.67;2.00;;;;;;;;;;2060064;28;20030;-49
2024/02/12 05:14:32;;;;;;;3.42;2.15;;;;;;;;;;2062415;28;20038;-51
2024/02/12 05:15:34;;;;;;;4.18;2.40;;;;;;;;;;2060878;28;20022;-50
2024/02/12 05:16:35;;;;;;;3.25;1.85;;;;;;;;;;2059480;28;20007;-51
2024/02/12 05:18:02;;;;;;;2.97;1.95;;;;;;;;;;2057103;28;20019;-50
2024/02/12 05:23:07;;;;;;;2.88;1.88;;;;;;;;;;2056932;28;20077;-50
2024/02/12 05:24:08;;;;;;;2.78;1.70;;;;;;;;;;2056700;28;20037;-51
2024/02/12 05:25:09;;;;;;;2.22;1.63;;;;;;;;;;2058427;28;20073;-51
2024/02/12 05:26:12;;;;;;;4.13;1.98;;;;;;;;;;2056689;28;20027;-50
2024/02/12 05:27:13;;;;;;;2.88;2.00;;;;;;;;;;2057214;28;20027;-51
2024/02/12 05:28:14;;;;;;;3.17;1.77;;;;;;;;;;2058328;28;20042;-50
2024/02/12 05:29:16;;;;;;;3.20;2.00;;;;;;;;;;2056904;28;20079;-50
2024/02/12 05:30:17;;;;;;;5.65;5.05;;;;;;;;;;2053392;28;20089;-51
2024/02/12 05:31:18;;;;;;;2.80;1.95;;;;;;;;;;2057210;28;20023;-49
2024/02/12 05:32:20;;;;;;;2.72;1.75;;;;;;;;;;2056136;28;20477;-52
2024/02/12 05:33:21;;;;;;;2.88;1.83;;;;;;;;;;2058443;28;20106;-50
2024/02/12 05:34:23;;;;;;;2.25;1.63;;;;;;;;;;2056761;28;20015;-51
2024/02/12 05:35:24;;;;;;;2.70;1.77;;;;;;;;;;2063296;28;20628;-48
2024/02/12 05:36:25;;;;;;;2.67;1.63;;;;;;;;;;2059975;28;20011;-50
2024/02/12 05:37:27;;;;;;;2.88;1.60;;;;;;;;;;2056521;28;20034;-50
2024/02/12 05:38:28;;;;;;;3.33;2.03;;;;;;;;;;2055557;28;20014;-49
2024/02/12 05:39:33;;;;;;;5.38;3.45;;;;;;;;;;2055944;28;20026;-49
2024/02/12 05:40:36;;;;;;;2.65;1.65;;;;;;;;;;2056088;28;20059;-51
2024/02/12 05:41:38;;;;;;;3.58;1.73;;;;;;;;;;2055325;28;20386;-49
2024/02/12 05:42:39;;;;;;;2.33;1.75;;;;;;;;;;2055283;28;20038;-49
2024/02/12 05:43:40;;;;;;;2.70;2.08;;;;;;;;;;2056703;28;20586;-49
2024/02/12 05:44:41;;;;;;;4.22;2.38;;;;;;;;;;2059923;28;20076;-52
2024/02/12 05:45:43;;;;;;;2.30;1.77;;;;;;;;;;2056762;28;20082;-49
2024/02/12 05:46:44;;;;;;;3.92;1.90;;;;;;;;;;2059359;28;20019;-48
2024/02/12 05:47:45;;;;;;;2.22;1.60;;;;;;;;;;2057285;28;20022;-49
2024/02/12 05:48:47;;;;;;;2.35;1.80;;;;;;;;;;2049168;28;20093;-49
2024/02/12 05:49:49;;;;;;;3.03;2.20;;;;;;;;;;2052036;28;20458;-49
2024/02/12 05:50:52;;;;;;;3.45;1.80;;;;;;;;;;2059370;28;20033;-49
2024/02/12 05:51:54;;;;;;;2.90;2.05;;;;;;;;;;2056884;28;20030;-48
2024/02/12 05:52:56;;;;;;;3.53;2.00;;;;;;;;;;2055355;28;20030;-48
2024/02/12 05:53:57;;;;;;;2.67;1.80;;;;;;;;;;2054608;28;20027;-49
2024/02/12 05:54:58;;;;;;;2.13;1.50;;;;;;;;;;2058270;28;20118;-48
2024/02/12 05:56:00;;;;;;;2.00;1.70;;;;;;;;;;2056237;28;20105;-48
2024/02/12 05:57:02;;;;;;;2.33;1.55;;;;;;;;;;2056363;28;20556;-48
2024/02/12 05:58:04;;;;;;;2.50;1.83;;;;;;;;;;2056266;28;20378;-48
2024/02/12 05:59:06;;;;;;;3.25;2.03;;;;;;;;;;2056184;28;20023;-50
2024/02/12 06:00:07;;;;;;;2.70;1.50;;;;;;;;;;2056808;28;20018;-49
2024/02/12 06:01:09;;;;;;;2.63;1.90;;;;;;;;;;2056240;28;20086;-48
2024/02/12 06:02:12;;;;;;;2.60;2.13;;;;;;;;;;2056355;28;20019;-48
2024/02/12 06:03:13;;;;;;;3.10;2.20;;;;;;;;;;2056955;28;20030;-48
2024/02/12 06:04:14;;;;;;;3.33;2.13;;;;;;;;;;2056755;28;20423;-48
2024/02/12 06:05:15;;;;;;;3.15;2.03;;;;;;;;;;2057920;28;20027;-47
2024/02/12 06:06:18;;;;;;;2.50;1.80;;;;;;;;;;2056353;28;20527;-48
2024/02/12 06:07:19;;;;;;;3.78;2.08;;;;;;;;;;2057130;28;20419;-49
2024/02/12 06:08:20;;;;;;;2.90;2.00;;;;;;;;;;2056554;28;20023;-49
2024/02/12 06:09:22;;;;;;;14.13;8.38;;;;;;;;;;2056304;28;20035;-49
2024/02/12 06:10:23;;;;;;;10.23;6.22;;;;;;;;;;2056152;28;20052;-49
2024/02/12 06:11:24;;;;;;;3.42;2.25;;;;;;;;;;2056924;28;20046;-48
2024/02/12 06:12:25;;;;;;;4.15;2.10;;;;;;;;;;2056907;28;20057;-50
2024/02/12 06:13:27;;;;;;;3.08;2.42;;;;;;;;;;2056873;28;20475;-52
2024/02/12 06:14:28;;;;;;;2.78;1.88;;;;;;;;;;2056887;28;20019;-55
2024/02/12 06:15:31;;;;;;;3.33;2.17;;;;;;;;;;2050478;28;20482;-54
2024/02/12 06:16:32;;;;;;;3.08;2.00;;;;;;;;;;2053761;28;20402;-56
2024/02/12 06:17:34;;;;;;;3.17;2.05;;;;;;;;;;2056038;28;20078;-54
2024/02/12 06:18:35;;;;;;;2.97;1.75;;;;;;;;;;2056299;28;20015;-55
2024/02/12 06:19:37;;;;;;;2.95;1.45;;;;;;;;;;2055631;28;20102;-49
2024/02/12 06:20:40;;;;;;;2.08;1.50;;;;;;;;;;2056684;28;20015;-55
2024/02/12 06:21:44;;;;;;;2.78;1.40;;;;;;;;;;2055893;28;20027;-56
2024/02/12 06:22:45;;;;;;;2.40;1.35;;;;;;;;;;2056851;28;20051;-54
2024/02/12 06:23:46;;;;;;;2.60;1.48;;;;;;;;;;2056596;28;20038;-54
2024/02/12 06:24:48;;;;;;;2.33;1.50;;;;;;;;;;2056503;28;20059;-51
2024/02/12 06:25:49;;;;;;;2.80;1.48;;;;;;;;;;2056922;28;20033;-54
2024/02/12 06:26:52;;;;;;;2.53;1.40;;;;;;;;;;2056725;28;20467;-54
2024/02/12 06:27:53;;;;;;;3.03;1.42;;;;;;;;;;2056665;28;20053;-53
2024/02/12 06:28:54;;;;;;;1.98;1.17;;;;;;;;;;2056960;28;20057;-52